createdAt,value
2018-09-11T00:01:20.692Z,45.30
2018-09-11T00:03:49.657Z,45.80
2018-09-11T00:06:18.554Z,45.80
2018-09-11T00:08:47.537Z,46.00
2018-09-11T00:11:16.436Z,45.70
2018-09-11T00:13:45.377Z,45.40
2018-09-11T00:16:14.324Z,45.80
2018-09-11T00:18:43.220Z,45.80
2018-09-11T00:21:12.149Z,46.20
2018-09-11T00:23:41.077Z,45.70
2018-09-11T00:26:10.200Z,45.80
2018-09-11T00:28:39.117Z,45.80
2018-09-11T00:31:08.093Z,45.60
2018-09-11T00:33:36.984Z,45.40
2018-09-11T00:36:05.940Z,45.60
2018-09-11T00:38:34.832Z,45.70
2018-09-11T00:41:03.812Z,45.90
2018-09-11T00:43:32.705Z,46.00
2018-09-11T00:46:01.649Z,46.00
2018-09-11T00:48:30.545Z,46.00
2018-09-11T00:50:59.480Z,46.20
2018-09-11T00:53:28.404Z,45.80
2018-09-11T00:55:57.346Z,45.90
2018-09-11T00:58:26.260Z,45.90
2018-09-11T01:00:55.153Z,46.10
2018-09-11T01:03:24.084Z,46.30
2018-09-11T01:05:52.979Z,46.00
2018-09-11T01:08:21.917Z,46.40
2018-09-11T01:10:50.810Z,46.10
2018-09-11T01:13:19.753Z,46.10
2018-09-11T01:15:48.652Z,46.00
2018-09-11T01:18:17.603Z,46.10
2018-09-11T01:20:46.513Z,45.60
2018-09-11T01:23:15.452Z,45.70
2018-09-11T01:25:44.391Z,46.00
2018-09-11T01:28:13.334Z,46.10
2018-09-11T01:30:42.292Z,46.30
2018-09-11T01:33:11.184Z,46.10
2018-09-11T01:35:40.136Z,46.00
2018-09-11T01:38:09.077Z,46.30
2018-09-11T01:40:38.056Z,46.20
2018-09-11T01:43:07.069Z,46.00
2018-09-11T01:45:36.034Z,46.10
2018-09-11T01:48:04.928Z,46.20
2018-09-11T01:50:33.912Z,46.20
2018-09-11T01:53:02.796Z,47.10
2018-09-11T01:55:31.732Z,46.50
2018-09-11T01:58:00.637Z,46.40
2018-09-11T02:00:29.578Z,46.50
2018-09-11T02:02:58.480Z,46.50
2018-09-11T02:05:27.425Z,46.60
2018-09-11T02:07:56.315Z,46.80
2018-09-11T02:10:25.241Z,46.60
2018-09-11T02:12:54.136Z,46.80
2018-09-11T02:15:23.113Z,46.90
2018-09-11T02:17:52.133Z,47.20
2018-09-11T02:20:21.114Z,47.10
2018-09-11T02:22:50.147Z,46.90
2018-09-11T02:25:19.052Z,47.00
2018-09-11T02:27:47.992Z,47.10
2018-09-11T02:30:16.962Z,47.20
2018-09-11T02:32:45.876Z,47.50
2018-09-11T02:35:14.769Z,47.60
2018-09-11T02:37:43.721Z,47.60
2018-09-11T02:40:12.605Z,47.80
2018-09-11T02:42:41.496Z,47.80
2018-09-11T02:45:10.468Z,48.00
2018-09-11T02:47:39.394Z,48.10
2018-09-11T02:50:08.713Z,48.40
2018-09-11T02:52:37.868Z,48.00
2018-09-11T02:55:07.559Z,48.20
2018-09-11T02:57:36.656Z,48.30
2018-09-11T03:00:05.594Z,48.10
2018-09-11T03:02:34.488Z,48.20
2018-09-11T03:05:03.449Z,48.50
2018-09-11T03:07:32.401Z,48.60
2018-09-11T03:10:01.372Z,48.80
2018-09-11T03:12:30.277Z,48.70
2018-09-11T03:14:59.221Z,48.60
2018-09-11T03:17:28.136Z,48.90
2018-09-11T03:19:57.069Z,49.00
2018-09-11T03:22:25.964Z,49.00
2018-09-11T03:24:54.873Z,49.20
2018-09-11T03:27:23.853Z,50.00
2018-09-11T03:29:52.765Z,49.30
2018-09-11T03:32:21.709Z,49.20
2018-09-11T03:34:50.742Z,49.30
2018-09-11T03:37:19.685Z,49.20
2018-09-11T03:39:48.694Z,49.20
2018-09-11T03:42:17.708Z,49.40
2018-09-11T03:44:46.577Z,49.20
2018-09-11T03:47:15.511Z,49.30
2018-09-11T03:49:44.396Z,49.30
2018-09-11T03:52:13.385Z,49.30
2018-09-11T03:54:42.290Z,49.50
2018-09-11T03:57:11.185Z,49.60
2018-09-11T03:59:40.165Z,49.50
2018-09-11T04:02:09.089Z,49.80
2018-09-11T04:04:38.077Z,49.70
2018-09-11T04:07:06.978Z,49.90
2018-09-11T04:09:35.989Z,49.50
2018-09-11T04:12:04.901Z,50.00
2018-09-11T04:14:33.848Z,50.00
2018-09-11T04:17:02.741Z,50.00
2018-09-11T04:19:31.703Z,50.70
2018-09-11T04:22:00.589Z,50.90
2018-09-11T04:24:29.561Z,50.10
2018-09-11T04:26:58.449Z,50.10
2018-09-11T04:29:27.399Z,50.30
2018-09-11T04:31:56.296Z,50.30
2018-09-11T04:34:25.233Z,50.30
2018-09-11T04:36:54.159Z,50.20
2018-09-11T04:39:23.085Z,50.10
2018-09-11T04:41:52.032Z,50.10
2018-09-11T04:44:20.928Z,50.20
2018-09-11T04:46:49.866Z,50.20
2018-09-11T04:49:18.775Z,50.10
2018-09-11T04:51:47.715Z,50.10
2018-09-11T04:54:16.624Z,50.10
2018-09-11T04:56:45.569Z,50.10
2018-09-11T04:59:14.453Z,50.10
2018-09-11T05:01:43.381Z,50.20
2018-09-11T05:04:12.286Z,50.10
2018-09-11T05:06:41.229Z,50.10
2018-09-11T05:09:10.888Z,50.40
2018-09-11T05:11:39.889Z,50.40
2018-09-11T05:14:09.201Z,50.60
2018-09-11T05:16:38.222Z,50.90
2018-09-11T05:19:07.147Z,51.30
2018-09-11T05:21:36.064Z,50.70
2018-09-11T05:24:05.007Z,50.80
2018-09-11T05:26:33.916Z,50.90
2018-09-11T05:29:02.873Z,50.80
2018-09-11T05:31:31.784Z,50.80
2018-09-11T05:34:00.717Z,51.00
2018-09-11T05:36:29.628Z,51.00
2018-09-11T05:38:58.823Z,51.00
2018-09-11T05:41:27.725Z,51.20
2018-09-11T05:43:56.660Z,51.20
2018-09-11T05:46:25.545Z,51.30
2018-09-11T05:48:54.554Z,51.40
2018-09-11T05:51:23.569Z,51.40
2018-09-11T05:53:52.488Z,51.40
2018-09-11T05:56:21.892Z,51.60
2018-09-11T05:58:50.840Z,51.70
2018-09-11T06:01:19.920Z,51.70
2018-09-11T06:03:48.816Z,51.70
2018-09-11T06:06:17.768Z,51.80
2018-09-11T06:08:46.662Z,51.90
2018-09-11T06:11:15.613Z,51.90
2018-09-11T06:13:44.531Z,52.00
2018-09-11T06:16:13.498Z,52.10
2018-09-11T06:18:42.390Z,52.10
2018-09-11T06:21:11.337Z,52.20
2018-09-11T06:23:40.248Z,52.20
2018-09-11T06:26:09.332Z,52.30
2018-09-11T06:28:38.233Z,52.20
2018-09-11T06:31:07.532Z,52.20
2018-09-11T06:33:36.436Z,52.30
2018-09-11T06:36:05.333Z,52.40
2018-09-11T06:38:34.273Z,52.40
2018-09-11T06:41:03.320Z,52.40
2018-09-11T06:43:32.221Z,52.40
2018-09-11T06:46:01.115Z,52.50
2018-09-11T06:48:30.085Z,52.50
2018-09-11T06:50:58.988Z,52.50
2018-09-11T06:53:27.933Z,52.60
2018-09-11T06:55:56.834Z,52.70
2018-09-11T06:58:25.780Z,52.70
2018-09-11T07:00:54.664Z,52.80
2018-09-11T07:03:23.608Z,52.80
2018-09-11T07:05:52.558Z,52.90
2018-09-11T07:08:21.496Z,52.80
2018-09-11T07:10:50.427Z,53.00
2018-09-11T07:13:19.324Z,53.10
2018-09-11T07:15:48.260Z,53.20
2018-09-11T07:18:17.160Z,53.30
2018-09-11T07:20:46.113Z,53.20
2018-09-11T07:23:15.020Z,53.20
2018-09-11T07:25:43.948Z,53.20
2018-09-11T07:28:12.833Z,53.20
2018-09-11T07:30:41.769Z,53.30
2018-09-11T07:33:10.685Z,53.20
2018-09-11T07:35:39.672Z,53.10
2018-09-11T07:38:08.585Z,53.10
2018-09-11T07:40:37.552Z,53.00
2018-09-11T07:43:06.458Z,53.20
2018-09-11T07:45:35.394Z,53.00
2018-09-11T07:48:04.320Z,53.00
2018-09-11T07:50:33.244Z,53.00
2018-09-11T07:53:02.170Z,52.90
2018-09-11T07:55:31.133Z,52.90
2018-09-11T07:58:00.115Z,54.00
2018-09-11T08:00:29.125Z,53.70
2018-09-11T08:02:58.164Z,53.50
2018-09-11T08:05:27.038Z,53.40
2018-09-11T08:07:55.968Z,53.30
2018-09-11T08:10:24.892Z,53.00
2018-09-11T08:12:53.816Z,53.00
2018-09-11T08:15:22.716Z,52.90
2018-09-11T08:17:51.662Z,52.70
2018-09-11T08:20:20.796Z,52.60
2018-09-11T08:22:49.742Z,52.50
2018-09-11T08:25:18.636Z,53.10
2018-09-11T08:27:47.573Z,52.40
2018-09-11T08:30:16.552Z,52.20
2018-09-11T08:32:45.497Z,52.30
2018-09-11T08:35:14.409Z,52.20
2018-09-11T08:37:43.340Z,52.20
2018-09-11T08:40:12.241Z,52.10
2018-09-11T08:42:41.245Z,52.10
2018-09-11T08:45:10.161Z,52.10
2018-09-11T08:47:39.121Z,52.30
2018-09-11T08:50:08.045Z,52.10
2018-09-11T08:52:37.041Z,52.10
2018-09-11T08:55:05.930Z,51.90
2018-09-11T08:57:34.889Z,51.30
2018-09-11T09:00:04.589Z,51.70
2018-09-11T09:02:33.513Z,51.80
2018-09-11T09:05:02.936Z,51.60
2018-09-11T09:07:31.872Z,51.50
2018-09-11T09:10:00.810Z,51.50
2018-09-11T09:12:29.756Z,51.20
2018-09-11T09:14:58.643Z,51.00
2018-09-11T09:17:27.721Z,51.00
2018-09-11T09:19:56.655Z,50.80
2018-09-11T09:22:25.588Z,50.90
2018-09-11T09:24:54.543Z,50.70
2018-09-11T09:27:23.489Z,50.70
2018-09-11T09:29:52.440Z,50.50
2018-09-11T09:32:21.342Z,50.40
2018-09-11T09:34:50.282Z,50.60
2018-09-11T09:37:19.348Z,50.50
2018-09-11T09:39:48.288Z,50.40
2018-09-11T09:42:17.245Z,50.30
2018-09-11T09:44:46.209Z,50.30
2018-09-11T09:47:15.190Z,50.20
2018-09-11T09:49:44.120Z,50.30
2018-09-11T09:52:13.016Z,50.30
2018-09-11T09:54:41.959Z,50.30
2018-09-11T09:57:10.897Z,50.00
2018-09-11T09:59:39.845Z,49.80
2018-09-11T10:02:13.853Z,49.50
2018-09-11T10:04:42.829Z,49.40
2018-09-11T10:07:11.711Z,49.10
2018-09-11T10:09:40.673Z,49.30
2018-09-11T10:12:09.608Z,49.00
2018-09-11T10:14:38.544Z,48.90
2018-09-11T10:17:08.305Z,48.70
2018-09-11T10:19:37.237Z,48.90
2018-09-11T10:22:06.204Z,48.70
2018-09-11T10:24:35.665Z,48.60
2018-09-11T10:27:04.737Z,48.70
2018-09-11T10:29:33.648Z,48.60
2018-09-11T10:32:02.540Z,48.60
2018-09-11T10:34:31.520Z,48.20
2018-09-11T10:37:00.434Z,48.10
2018-09-11T10:39:29.459Z,48.00
2018-09-11T10:41:58.357Z,47.70
2018-09-11T10:44:27.300Z,47.60
2018-09-11T10:46:56.192Z,47.20
2018-09-11T10:49:25.132Z,47.20
2018-09-11T10:51:54.175Z,47.10
2018-09-11T10:54:23.090Z,46.80
2018-09-11T10:56:51.989Z,46.50
2018-09-11T10:59:20.916Z,47.40
2018-09-11T11:01:49.817Z,46.70
2018-09-11T11:04:18.849Z,46.60
2018-09-11T11:06:47.748Z,46.30
2018-09-11T11:09:16.695Z,46.30
2018-09-11T11:11:45.584Z,46.40
2018-09-11T11:14:14.525Z,46.50
2018-09-11T11:16:43.451Z,46.60
2018-09-11T11:19:12.361Z,46.30
2018-09-11T11:21:41.272Z,46.10
2018-09-11T11:24:10.246Z,46.00
2018-09-11T11:26:39.157Z,46.00
2018-09-11T11:29:08.081Z,45.90
2018-09-11T11:31:36.989Z,45.70
2018-09-11T11:34:05.904Z,45.80
2018-09-11T11:36:34.894Z,45.70
2018-09-11T11:39:04.272Z,45.30
2018-09-11T11:41:33.221Z,45.10
2018-09-11T11:44:02.117Z,45.10
2018-09-11T11:46:31.053Z,45.10
2018-09-11T11:48:59.943Z,44.70
2018-09-11T11:51:28.921Z,44.70
2018-09-11T11:53:57.855Z,44.50
2018-09-11T11:56:26.772Z,44.50
2018-09-11T11:58:55.685Z,44.50
2018-09-11T12:01:24.714Z,44.30
2018-09-11T12:03:53.605Z,43.10
2018-09-11T12:06:22.545Z,44.00
2018-09-11T12:08:51.451Z,43.70
2018-09-11T12:11:20.406Z,43.20
2018-09-11T12:13:49.289Z,43.10
2018-09-11T12:16:18.283Z,43.00
2018-09-11T12:18:47.141Z,42.80
2018-09-11T12:21:16.116Z,42.20
2018-09-11T12:23:45.005Z,41.90
2018-09-11T12:26:13.937Z,42.10
2018-09-11T12:28:42.854Z,42.30
2018-09-11T12:31:11.861Z,42.10
2018-09-11T12:33:40.717Z,42.10
2018-09-11T12:36:09.749Z,41.80
2018-09-11T12:38:38.655Z,41.80
2018-09-11T12:41:12.848Z,41.50
2018-09-11T12:43:41.774Z,41.50
2018-09-11T12:46:10.908Z,41.40
2018-09-11T12:48:39.779Z,41.30
2018-09-11T12:51:08.622Z,40.40
2018-09-11T12:53:37.526Z,40.50
2018-09-11T12:56:06.449Z,40.40
2018-09-11T12:58:35.384Z,40.60
2018-09-11T13:01:04.312Z,39.80
2018-09-11T13:03:33.234Z,39.90
2018-09-11T13:06:02.568Z,39.90
2018-09-11T13:08:31.457Z,39.80
2018-09-11T13:11:00.453Z,39.50
2018-09-11T13:13:29.442Z,38.90
2018-09-11T13:15:58.368Z,38.70
2018-09-11T13:18:27.252Z,37.80
2018-09-11T13:20:56.177Z,37.20
2018-09-11T13:23:25.044Z,37.70
2018-09-11T13:25:53.977Z,36.80
2018-09-11T13:28:22.887Z,37.30
2018-09-11T13:30:51.821Z,36.10
2018-09-11T13:33:20.707Z,36.90
2018-09-11T13:35:49.638Z,37.10
2018-09-11T13:38:18.557Z,36.50
2018-09-11T13:40:47.525Z,37.30
2018-09-11T13:43:16.504Z,36.70
2018-09-11T13:45:45.430Z,36.30
2018-09-11T13:48:14.403Z,36.30
2018-09-11T13:50:43.318Z,35.90
2018-09-11T13:53:12.250Z,36.60
2018-09-11T13:55:41.136Z,35.30
2018-09-11T13:58:10.062Z,35.10
2018-09-11T14:00:38.941Z,35.40
2018-09-11T14:03:07.908Z,35.50
2018-09-11T14:05:36.797Z,35.00
2018-09-11T14:08:06.017Z,35.40
2018-09-11T14:10:34.913Z,35.30
2018-09-11T14:13:03.844Z,34.80
2018-09-11T14:15:32.721Z,34.90
2018-09-11T14:18:01.653Z,34.70
2018-09-11T14:20:30.572Z,33.90
2018-09-11T14:22:59.492Z,34.00
2018-09-11T14:25:28.408Z,33.20
2018-09-11T14:27:57.333Z,32.70
2018-09-11T14:30:26.220Z,32.60
2018-09-11T14:32:55.140Z,32.60
2018-09-11T14:35:24.033Z,33.00
2018-09-11T14:37:52.973Z,33.00
2018-09-11T14:40:21.885Z,32.60
2018-09-11T14:42:50.852Z,32.70
2018-09-11T14:45:20.033Z,32.50
2018-09-11T14:47:49.034Z,32.80
2018-09-11T14:50:17.912Z,32.70
2018-09-11T14:52:46.825Z,32.30
2018-09-11T14:55:15.717Z,32.00
2018-09-11T14:57:44.657Z,32.00
2018-09-11T15:00:13.568Z,32.30
2018-09-11T15:02:42.493Z,31.80
2018-09-11T15:05:11.377Z,31.90
2018-09-11T15:07:40.288Z,32.00
2018-09-11T15:10:09.269Z,31.80
2018-09-11T15:12:38.180Z,31.60
2018-09-11T15:15:07.126Z,31.90
2018-09-11T15:17:36.110Z,31.60
2018-09-11T15:20:05.321Z,31.50
2018-09-11T15:22:34.341Z,30.40
2018-09-11T15:25:03.344Z,30.30
2018-09-11T15:27:32.300Z,30.50
2018-09-11T15:30:01.296Z,30.50
2018-09-11T15:32:30.180Z,30.30
2018-09-11T15:34:59.063Z,30.40
2018-09-11T15:37:27.997Z,30.00
2018-09-11T15:39:56.921Z,30.20
2018-09-11T15:42:25.921Z,29.80
2018-09-11T15:44:54.864Z,29.30
2018-09-11T15:47:23.761Z,29.60
2018-09-11T15:49:52.676Z,29.70
2018-09-11T15:52:21.569Z,29.60
2018-09-11T15:54:50.507Z,29.60
2018-09-11T15:57:19.389Z,29.60
2018-09-11T15:59:48.314Z,29.70
2018-09-11T16:02:17.213Z,29.60
2018-09-11T16:04:46.129Z,29.10
2018-09-11T16:07:15.014Z,29.10
2018-09-11T16:09:43.949Z,28.90
2018-09-11T16:12:12.833Z,28.40
2018-09-11T16:14:41.756Z,28.80
2018-09-11T16:17:10.662Z,28.70
2018-09-11T16:19:39.577Z,28.80
2018-09-11T16:22:08.540Z,29.10
2018-09-11T16:24:37.419Z,29.00
2018-09-11T16:27:06.344Z,28.60
2018-09-11T16:29:35.264Z,28.60
2018-09-11T16:32:04.157Z,28.70
2018-09-11T16:34:33.105Z,28.60
2018-09-11T16:37:02.004Z,28.80
2018-09-11T16:39:30.952Z,28.80
2018-09-11T16:41:59.912Z,28.80
2018-09-11T16:44:28.837Z,28.80
2018-09-11T16:46:57.732Z,29.00
2018-09-11T16:49:26.700Z,29.00
2018-09-11T16:51:55.620Z,28.50
2018-09-11T16:54:24.547Z,29.10
2018-09-11T16:56:53.484Z,29.40
2018-09-11T16:59:22.437Z,29.30
2018-09-11T17:01:51.349Z,29.50
2018-09-11T17:04:20.313Z,29.70
2018-09-11T17:06:49.205Z,29.80
2018-09-11T17:09:18.157Z,29.70
2018-09-11T17:11:47.056Z,30.00
2018-09-11T17:14:16.036Z,30.30
2018-09-11T17:16:44.949Z,30.00
2018-09-11T17:19:13.873Z,30.50
2018-09-11T17:21:42.777Z,30.90
2018-09-11T17:24:11.710Z,31.20
2018-09-11T17:26:40.617Z,31.30
2018-09-11T17:29:09.549Z,31.50
2018-09-11T17:31:38.461Z,31.70
2018-09-11T17:34:07.570Z,31.90
2018-09-11T17:36:36.472Z,32.00
2018-09-11T17:39:08.506Z,32.00
2018-09-11T17:41:37.707Z,32.30
2018-09-11T17:44:07.554Z,32.10
2018-09-11T17:46:36.541Z,32.50
2018-09-11T17:49:05.635Z,32.60
2018-09-11T17:51:34.575Z,33.00
2018-09-11T17:54:04.047Z,33.10
2018-09-11T17:56:32.958Z,33.30
2018-09-11T17:59:01.910Z,33.00
2018-09-11T18:01:30.977Z,33.10
2018-09-11T18:04:00.093Z,33.60
2018-09-11T18:06:29.439Z,33.90
2018-09-11T18:08:58.700Z,33.80
2018-09-11T18:11:27.665Z,33.80
2018-09-11T18:13:56.596Z,33.50
2018-09-11T18:16:25.537Z,34.10
2018-09-11T18:18:54.436Z,34.20
2018-09-11T18:21:23.370Z,33.60
2018-09-11T18:23:52.327Z,34.30
2018-09-11T18:26:21.358Z,33.80
2018-09-11T18:28:50.379Z,33.90
2018-09-11T18:31:19.412Z,34.20
2018-09-11T18:33:48.533Z,34.30
2018-09-11T18:36:17.475Z,34.40
2018-09-11T18:38:46.365Z,34.90
2018-09-11T18:41:16.321Z,34.80
2018-09-11T18:43:45.257Z,34.70
2018-09-11T18:46:14.192Z,33.50
2018-09-11T18:48:43.097Z,34.70
2018-09-11T18:51:12.039Z,35.10
2018-09-11T18:53:40.953Z,34.90
2018-09-11T18:56:09.872Z,34.20
2018-09-11T18:58:38.765Z,34.20
2018-09-11T19:01:07.697Z,35.00
2018-09-11T19:03:36.602Z,34.60
2018-09-11T19:06:05.545Z,34.80
2018-09-11T19:08:34.501Z,35.00
2018-09-11T19:11:03.488Z,34.30
2018-09-11T19:13:32.422Z,34.90
2018-09-11T19:16:01.443Z,35.00
2018-09-11T19:18:30.381Z,34.80
2018-09-11T19:20:59.326Z,34.70
2018-09-11T19:23:28.233Z,35.10
2018-09-11T19:25:57.164Z,34.80
2018-09-11T19:28:26.084Z,35.20
2018-09-11T19:30:55.057Z,34.70
2018-09-11T19:33:23.953Z,34.80
2018-09-11T19:35:52.933Z,35.10
2018-09-11T19:38:21.881Z,34.90
2018-09-11T19:40:50.818Z,35.40
2018-09-11T19:43:19.797Z,35.30
2018-09-11T19:45:48.737Z,35.30
2018-09-11T19:48:17.651Z,35.40
2018-09-11T19:50:46.585Z,35.70
2018-09-11T19:53:15.497Z,35.80
2018-09-11T19:55:44.453Z,36.00
2018-09-11T19:58:13.453Z,36.40
2018-09-11T20:00:42.399Z,35.40
2018-09-11T20:03:11.424Z,35.50
2018-09-11T20:05:40.341Z,35.60
2018-09-11T20:08:09.275Z,35.90
2018-09-11T20:10:38.169Z,36.20
2018-09-11T20:13:07.417Z,36.10
2018-09-11T20:15:36.337Z,35.60
2018-09-11T20:18:05.376Z,36.10
2018-09-11T20:20:34.378Z,35.60
2018-09-11T20:23:03.331Z,36.50
2018-09-11T20:25:32.419Z,36.20
2018-09-11T20:28:01.282Z,36.20
2018-09-11T20:30:30.189Z,36.00
2018-09-11T20:32:59.121Z,36.00
2018-09-11T20:35:28.028Z,35.90
2018-09-11T20:37:56.949Z,35.90
2018-09-11T20:40:25.873Z,36.10
2018-09-11T20:42:54.874Z,36.70
2018-09-11T20:45:23.802Z,36.60
2018-09-11T20:47:52.736Z,36.80
2018-09-11T20:50:21.651Z,36.90
2018-09-11T20:52:50.573Z,36.70
2018-09-11T20:55:19.483Z,37.00
2018-09-11T20:57:48.405Z,36.60
2018-09-11T21:00:17.305Z,37.00
2018-09-11T21:02:46.230Z,36.90
2018-09-11T21:05:15.181Z,37.20
2018-09-11T21:07:44.117Z,37.30
2018-09-11T21:10:13.021Z,37.50
2018-09-11T21:12:41.945Z,37.30
2018-09-11T21:15:10.881Z,37.00
2018-09-11T21:17:39.809Z,37.40
2018-09-11T21:20:08.700Z,37.40
2018-09-11T21:22:37.629Z,37.40
2018-09-11T21:25:06.556Z,37.40
2018-09-11T21:27:35.505Z,37.70
2018-09-11T21:30:04.442Z,37.40
2018-09-11T21:32:33.393Z,37.80
2018-09-11T21:35:02.313Z,38.10
2018-09-11T21:37:31.268Z,38.10
2018-09-11T21:40:00.185Z,38.20
2018-09-11T21:42:29.165Z,38.20
2018-09-11T21:44:58.073Z,38.10
2018-09-11T21:47:27.045Z,37.90
2018-09-11T21:49:55.960Z,37.70
2018-09-11T21:52:24.921Z,38.10
2018-09-11T21:54:53.841Z,37.90
2018-09-11T21:57:22.777Z,37.80
2018-09-11T21:59:51.693Z,37.70
2018-09-11T22:02:20.726Z,37.80
2018-09-11T22:04:49.625Z,38.10
2018-09-11T22:07:18.540Z,38.20
2018-09-11T22:09:47.437Z,38.50
2018-09-11T22:12:16.495Z,38.60
2018-09-11T22:14:45.397Z,39.10
2018-09-11T22:17:14.348Z,39.10
2018-09-11T22:19:43.233Z,39.30
2018-09-11T22:22:12.172Z,39.80
2018-09-11T22:24:41.091Z,39.40
2018-09-11T22:27:10.013Z,39.40
2018-09-11T22:29:38.947Z,39.30
2018-09-11T22:32:07.832Z,39.20
2018-09-11T22:34:36.793Z,39.40
2018-09-11T22:37:05.717Z,39.50
2018-09-11T22:39:34.699Z,39.50
2018-09-11T22:42:03.701Z,39.50
2018-09-11T22:44:32.647Z,39.80
2018-09-11T22:47:01.558Z,39.40
2018-09-11T22:49:30.553Z,39.50
2018-09-11T22:51:59.490Z,39.30
2018-09-11T22:54:28.413Z,39.30
2018-09-11T22:56:57.404Z,39.50
2018-09-11T22:59:26.341Z,39.50
2018-09-11T23:01:55.249Z,39.80
2018-09-11T23:04:24.201Z,40.00
2018-09-11T23:06:53.109Z,40.10
2018-09-11T23:09:22.047Z,39.80
2018-09-11T23:11:50.947Z,40.70
2018-09-11T23:14:19.882Z,39.90
2018-09-11T23:16:48.787Z,39.80
2018-09-11T23:19:17.736Z,40.00
2018-09-11T23:21:46.641Z,40.10
2018-09-11T23:24:15.577Z,40.10
2018-09-11T23:26:44.560Z,40.40
2018-09-11T23:29:13.502Z,40.40
2018-09-11T23:31:42.480Z,40.60
2018-09-11T23:34:11.408Z,40.40
2018-09-11T23:36:40.317Z,40.30
2018-09-11T23:39:09.389Z,40.50
2018-09-11T23:41:38.789Z,40.50
2018-09-11T23:44:08.297Z,40.40
2018-09-11T23:46:37.225Z,40.40
2018-09-11T23:49:06.352Z,40.50
2018-09-11T23:51:35.284Z,40.50
2018-09-11T23:54:04.216Z,40.40
2018-09-11T23:56:33.128Z,40.60
2018-09-11T23:59:02.074Z,40.70
